Weather reports worldwide

Advertisment
Brocken, Germany (10453): temperature & dewpoint: 09.12.2018 07:00:00 - 15.12.2018 07:00:00 (CET)Brocken, Germany (10453): temperature 5cm: 09.12.2018 07:00:00 - 15.12.2018 07:00:00 (CET)Brocken, Germany (10453): wind speed & gusts: 09.12.2018 07:00:00 - 15.12.2018 07:00:00 (CET)Brocken, Germany (10453): wind direction: 09.12.2018 07:00:00 - 15.12.2018 07:00:00 (CET)Brocken, Germany (10453): visibility: 09.12.2018 07:00:00 - 15.12.2018 07:00:00 (CET)Brocken, Germany (10453): sunshine duration: 09.12.2018 07:00:00 - 15.12.2018 07:00:00 (CET)
Date & Time tt [°C] td [°C] tt 5cm [°C] ff [km/h] ff [kn] fx [km/h] fx [kn] dd vv [km] sd [min]
15.12.2018 07:00:00 - - - - - - - - - -
15.12.2018 06:00:00 -7,8 -8,5 -7,9 26 14 38 20 ESE 0,1 0
15.12.2018 05:00:00 -7,9 -8,5 -7,8 29 16 40 22 ESE 0,1 0
15.12.2018 04:00:00 -8,1 -8,8 -8,1 34 18 47 25 SE 0,1 0
15.12.2018 03:00:00 -8,0 -8,7 -8,1 32 18 47 25 SE 0,1 0
15.12.2018 02:00:00 -8,0 -8,7 -8,2 36 19 50 27 SE 0,1 0
15.12.2018 01:00:00 -7,8 -8,5 -7,9 34 18 52 28 SE - 0
15.12.2018 00:00:00 -7,8 -8,4 -7,8 33 18 46 25 ESE - 0
14.12.2018 23:00:00 -8,0 -8,7 -8,0 36 19 53 28 SE - 0
14.12.2018 22:00:00 -8,1 -8,9 -8,2 36 20 51 28 SE - 0
14.12.2018 21:00:00 -8,1 -8,9 -8,2 36 19 49 26 ESE - 0
14.12.2018 20:00:00 -7,8 -8,5 -7,8 36 19 46 25 ESE 0,1 0
14.12.2018 19:00:00 -7,8 -8,5 -7,9 35 19 54 29 E 0,1 0
14.12.2018 18:00:00 -7,8 -8,5 -7,8 36 19 54 29 E 0,1 0
14.12.2018 17:00:00 -7,7 -8,5 -7,8 39 21 58 31 E 0,1 0
14.12.2018 16:00:00 -7,6 -8,5 -7,7 39 21 54 29 E 0,1 0
14.12.2018 15:00:00 -7,4 -8,2 -7,5 39 21 56 30 E 0,1 0
14.12.2018 14:00:00 -7,4 -8,2 -7,4 38 21 52 28 E 0,1 0
14.12.2018 13:00:00 -7,3 -8,1 -7,2 37 20 52 28 ESE 0,1 0
14.12.2018 12:00:00 -7,3 -8,2 -7,1 41 22 54 29 ESE 0,1 0
14.12.2018 11:00:00 -7,3 -8,0 -7,2 41 22 54 29 E 0,3 0
14.12.2018 10:00:00 -7,3 -8,1 -7,4 42 23 58 31 E 0,1 0
14.12.2018 09:00:00 -7,3 -8,1 -7,4 43 23 56 30 E 0,1 0
14.12.2018 08:00:00 -7,3 -8,0 -7,4 43 23 57 31 E 0,1 0
14.12.2018 07:00:00 -7,2 -7,9 -7,2 40 22 60 33 E 0,1 0
14.12.2018 06:00:00 -7,1 -7,8 -7,1 44 24 63 34 E - 0
14.12.2018 05:00:00 -6,9 -7,5 -7,0 40 22 57 31 E - 0
14.12.2018 04:00:00 -6,8 -7,5 -6,9 40 22 53 29 E - 0
14.12.2018 03:00:00 -6,7 -7,4 -6,8 43 23 59 32 E - 0
14.12.2018 02:00:00 -6,5 -7,2 -6,6 42 23 58 32 E - 0
14.12.2018 01:00:00 -6,3 -6,9 -6,3 41 22 57 31 E - 0
14.12.2018 00:00:00 -6,2 -6,8 -6,2 41 22 56 30 E - 0
13.12.2018 23:00:00 -5,8 -6,2 -5,8 38 20 51 27 E - 0
13.12.2018 22:00:00 -5,9 -6,5 -6,0 41 22 59 32 E - 0
13.12.2018 21:00:00 -5,8 -6,3 -5,8 42 23 57 31 E - 0
13.12.2018 20:00:00 -5,6 -6,0 -5,7 44 24 61 33 E - 0
13.12.2018 19:00:00 -5,6 -6,0 -5,6 45 24 65 35 E - 0
13.12.2018 18:00:00 -5,6 -6,1 -5,5 47 26 63 34 E - 0
13.12.2018 17:00:00 -5,6 -6,0 -5,6 38 20 55 30 E - 0
13.12.2018 16:00:00 -5,6 -6,1 -5,6 38 21 53 28 E - 0
13.12.2018 15:00:00 -5,8 -6,3 -5,7 29 15 53 29 E - 0
13.12.2018 14:00:00 -5,8 -6,2 -5,8 32 18 54 29 E - 0
13.12.2018 13:00:00 -5,8 -6,3 -5,6 39 21 55 30 E - 0
13.12.2018 12:00:00 -5,9 -6,5 -5,7 39 21 58 32 E - 0
13.12.2018 11:00:00 -6,0 -6,7 -5,8 42 23 56 30 E - 0
13.12.2018 10:00:00 -5,8 -6,3 -5,7 41 22 52 28 E - 0
13.12.2018 09:00:00 -6,0 -6,4 -6,0 34 18 47 26 E - 0
13.12.2018 08:00:00 -6,0 -6,5 -6,1 36 19 46 25 E - 0
13.12.2018 07:00:00 -6,1 -6,6 -6,1 38 20 49 26 E - 0
13.12.2018 06:00:00 -6,2 -6,7 -6,2 38 21 49 27 E - 0
13.12.2018 05:00:00 -6,3 -6,9 -6,3 40 21 49 26 E - 0
13.12.2018 04:00:00 -6,7 -7,4 -7,2 39 21 48 26 E 0,1 0
13.12.2018 03:00:00 -6,5 -7,4 -7,2 37 20 45 24 E 20 0
13.12.2018 02:00:00 -6,1 -6,6 -6,3 34 19 48 26 E - 0
13.12.2018 01:00:00 -6,2 -6,8 -6,4 35 19 46 25 E - 0
13.12.2018 00:00:00 -5,8 -6,4 -6,1 34 19 45 24 E - 0
12.12.2018 23:00:00 -4,9 -5,3 -5,2 33 18 47 25 E - 0
12.12.2018 22:00:00 -4,6 -5,0 -4,8 36 19 47 26 E 0,1 0
12.12.2018 21:00:00 -4,0 -4,3 -4,1 38 20 51 27 ENE 0,1 0
12.12.2018 20:00:00 -3,8 -4,1 -3,5 40 22 49 26 NE - 0
12.12.2018 19:00:00 -3,7 -4,1 -3,4 39 21 52 28 NNE 0,1 0
12.12.2018 18:00:00 -3,5 -4,0 -2,7 40 22 52 28 NNE - 0
12.12.2018 17:00:00 -3,4 -3,8 -2,5 37 20 49 26 NNE - 0
12.12.2018 16:00:00 -3,3 -3,7 -2,2 34 19 51 28 NNE - 0
12.12.2018 15:00:00 -3,3 -3,7 -2,2 27 15 42 23 N - 0
12.12.2018 14:00:00 -3,3 -3,7 -1,6 27 14 40 22 N - 0
12.12.2018 13:00:00 -4,0 -4,5 -2,3 33 18 47 26 NNE - 0
12.12.2018 12:00:00 -3,6 -4,1 -1,9 33 18 45 24 NNE - 0
12.12.2018 11:00:00 -3,8 -4,4 -2,6 37 20 46 25 NNE - 0
12.12.2018 10:00:00 -4,0 -4,5 -3,6 28 15 37 20 NNE - 0
12.12.2018 09:00:00 -4,0 -4,5 -3,8 22 12 34 19 N - 0
12.12.2018 08:00:00 -4,3 -4,6 -4,2 14 8 31 17 N - 0
12.12.2018 07:00:00 -4,1 -4,4 -4,0 17 9 34 19 NNE - 0
12.12.2018 06:00:00 -4,0 -4,4 -3,9 19 10 37 20 N - 0
12.12.2018 05:00:00 -4,0 -4,3 -3,9 16 9 33 18 N - 0
12.12.2018 04:00:00 -3,9 -4,2 -3,7 19 11 40 21 N - 0
12.12.2018 03:00:00 -3,8 -4,2 -3,7 24 13 53 29 N - 0
12.12.2018 02:00:00 -3,7 -4,0 -3,5 31 17 62 33 N - 0
12.12.2018 01:00:00 -3,7 -4,0 -3,6 28 15 64 34 N - 0
12.12.2018 00:00:00 -3,8 -4,2 -3,7 28 15 58 31 N - 0
11.12.2018 23:00:00 -3,7 -4,0 -3,6 32 18 63 34 N - 0
11.12.2018 22:00:00 -3,7 -4,0 -3,7 40 21 63 34 NNW - 0
11.12.2018 21:00:00 -3,6 -3,9 -3,6 41 22 66 36 NNW - 0
11.12.2018 20:00:00 -3,2 -3,5 -2,7 41 22 58 31 NNW - 0
11.12.2018 19:00:00 -3,2 -3,4 -3,2 45 24 71 39 NNW - 0
11.12.2018 18:00:00 -3,3 -3,6 -3,2 45 25 75 41 NNW - 0
11.12.2018 17:00:00 -3,2 -3,4 -3,1 41 22 62 34 NNW - 0
11.12.2018 16:00:00 -3,4 -3,7 -3,4 46 25 68 37 NW - 0
11.12.2018 15:00:00 -3,4 -3,8 -3,4 51 27 71 39 NW 0,1 0
11.12.2018 14:00:00 -3,3 -3,6 -3,3 39 21 67 36 NW 0,1 0
11.12.2018 13:00:00 -3,3 -3,7 -3,4 42 23 63 34 NW 0,1 0
11.12.2018 12:00:00 -3,2 -3,5 -3,2 38 21 61 33 NW 0,1 0
11.12.2018 11:00:00 -3,2 -3,5 -3,0 44 24 72 39 NW 0,1 0
11.12.2018 10:00:00 -3,2 -3,6 -3,1 51 28 74 40 NW 0,1 0
11.12.2018 09:00:00 -3,1 -3,5 -3,0 52 28 79 42 NW 0,1 0
11.12.2018 08:00:00 -3,0 -3,3 -2,9 54 29 88 48 NW 0,1 0
11.12.2018 07:00:00 -3,0 -3,3 -2,9 53 29 90 48 NW - 0
11.12.2018 06:00:00 -3,0 -3,3 -2,8 62 33 93 50 NW - 0
11.12.2018 05:00:00 -2,9 -3,2 -2,8 54 29 89 48 NNW - 0
11.12.2018 04:00:00 -3,0 -3,3 -2,9 58 31 93 50 NW - 0
11.12.2018 03:00:00 -3,0 -3,3 -2,9 58 32 90 48 NW - 0
11.12.2018 02:00:00 -3,0 -3,3 -2,9 55 30 96 52 NW - 0
11.12.2018 01:00:00 -3,0 -3,3 -2,8 64 35 101 55 NW - 0
11.12.2018 00:00:00 -3,0 -3,3 -2,8 59 32 93 50 NW - 0
10.12.2018 23:00:00 -3,0 -3,3 -2,9 57 31 86 47 NW - 0
10.12.2018 22:00:00 -3,1 -3,5 -3,0 56 30 90 49 NW - 0
10.12.2018 21:00:00 -3,4 -3,8 -3,2 55 30 85 46 WNW - 0
10.12.2018 20:00:00 -3,4 -3,8 -3,2 53 29 81 44 WNW - 0
10.12.2018 19:00:00 -3,7 -4,2 -3,5 57 31 91 49 WNW 0,1 0
10.12.2018 18:00:00 -3,8 -4,2 -3,6 67 36 92 50 W 0,1 0
10.12.2018 17:00:00 -3,9 -4,3 -3,7 55 30 85 46 W 0,1 0
10.12.2018 16:00:00 -3,8 -4,2 -3,7 61 33 91 49 W 0,1 0
10.12.2018 15:00:00 -4,0 -4,5 -3,8 61 33 92 50 W 0,1 0
10.12.2018 14:00:00 -3,8 -4,2 -3,5 59 32 85 46 WNW 0,1 0
10.12.2018 13:00:00 -3,8 -4,2 -3,6 65 35 96 52 W 0,1 0
10.12.2018 12:00:00 -3,7 -4,1 -3,4 66 36 85 46 W 0,1 0
10.12.2018 11:00:00 -3,8 -4,2 -3,7 61 33 90 49 WNW 0,1 0
10.12.2018 10:00:00 -3,7 -4,1 -3,5 62 34 91 49 WNW 0,1 0
10.12.2018 09:00:00 -3,8 -4,2 -3,6 65 35 90 49 WNW 0,1 0
10.12.2018 08:00:00 -3,6 -4,0 -3,4 63 34 95 51 WNW 0,1 0
10.12.2018 07:00:00 -3,4 -3,8 -3,2 56 30 89 48 WNW 0,1 0
10.12.2018 06:00:00 -3,4 -3,8 -3,2 64 35 90 49 WNW 0,1 0
10.12.2018 05:00:00 -3,2 -3,4 -3,0 57 31 89 48 WNW 0,1 0
10.12.2018 04:00:00 -3,0 -3,3 -2,8 53 29 84 45 WNW 0,1 0
10.12.2018 03:00:00 -2,9 -3,1 -2,7 56 31 83 45 WNW 0,1 0
10.12.2018 02:00:00 -2,8 -3,0 -2,6 61 33 93 50 WNW 0,1 0
10.12.2018 01:00:00 -2,6 -2,8 -2,4 66 35 103 55 WNW 0,1 0
10.12.2018 00:00:00 -2,7 -2,9 -2,4 72 39 107 58 WNW 0,1 0
09.12.2018 23:00:00 -2,3 -2,5 -2,1 74 40 105 57 WNW 0,1 0
09.12.2018 22:00:00 -2,0 -2,2 -1,9 72 39 100 54 WNW 0,1 0
09.12.2018 21:00:00 -1,6 -1,7 -1,4 72 39 96 52 WNW 0,1 0
09.12.2018 20:00:00 -1,4 -1,5 -1,1 65 35 101 55 WNW - 0
09.12.2018 19:00:00 -1,0 -1,0 -0,8 61 33 97 52 WNW - 0
09.12.2018 18:00:00 -0,7 -0,7 -0,5 61 33 97 53 WNW - 0
09.12.2018 17:00:00 -0,5 -0,5 -0,2 71 38 95 51 W - 0
09.12.2018 16:00:00 -0,6 -0,6 -0,3 60 33 99 54 W - 0
09.12.2018 15:00:00 -0,7 -0,7 -0,4 71 38 96 52 W - 0
09.12.2018 14:00:00 -0,5 -0,5 -0,2 63 34 92 50 W - 0
09.12.2018 13:00:00 -0,6 -0,6 -0,2 63 34 92 50 W - 0
09.12.2018 12:00:00 -0,8 -0,8 0,0 58 31 93 50 W 0,1 0
09.12.2018 11:00:00 0,0 0,0 0,0 75 41 104 56 WSW 0,1 0
09.12.2018 10:00:00 -0,1 -0,1 0,0 68 37 99 54 WSW 0,1 0
09.12.2018 09:00:00 -0,2 -0,2 0,0 79 42 113 61 WSW 0,1 0
09.12.2018 08:00:00 -0,1 -0,1 0,0 71 39 112 61 W 0,1 0
09.12.2018 07:00:00 -0,1 -0,1 0,0 76 41 116 62 WSW 0,1 0

tt = temperature
td = dewpoint
tt 5cm = temperature 5cm
ff = wind speed
fx = gusts
dd = wind direction
vv = visibility
sd = sunshine duration

Next stations